Chester, Connecticut
Current Conditions -  °F | °C
As of 1:15 AM on Monday 22 Dec 2014 (Local Time) from KSNC Reporting Station
Overcast Overcast  
Wind Chill: -2°   Ceiling: 4000
Heat Index:   Visibility: 10mi
Dew Point:   Wind: 6mph
Humidity: 93%   Direction: 10°N
Pressure: 30.32"   Gusts: NA
Location:  41.4°N, 72.45°W
Report Text: KSNC 220615Z AUTO 01005KT 10SM SCT008 OVC040 01/00 A3032 RMK AO2
Loading
Personal Weather Stations






























Interactive Weather Map New forecast layout! Learn more

10-Day Weather Forecast

Advertisements
Track Severe Weather on mobile